M I D A S
Marine Information and Data Acquisition System
Tripno 1297 of the Zeeleeuw from 2007-07-03 06:32:08 to 2007-07-03 15:22:59
Back to CruiseResearch ActivitiesStationsMapUnderway DataData graphs

EquipmentUnitsComment
TimeDGPSUTC
LatitudeDGPSDM.mWGS84
LongitudeDGPSDM.mWGS84
TemperatureSBE03/SBE38deg celciusITS90
ConductivitySBE21S/mITS90
SalinitySBE21 Practical Salinity Units
ChlorophylAChelsea fluorimeterg/lCalibrated in Aceton
Missing or incorrect values are displayed as -999
Sea surface data collected by the RV Zeeleeuw from 2007-07-03 06:30:31 to 2007-07-03 15:33:31
Time Latitude Longitude Temperature Conductivity Salinity ChlorophylA
2007-07-03 06:31:40 51°13.618 2°56.022 -999 -999 -999 -999
2007-07-03 06:32:39 51°13.662 2°55.908 -999 -999 -999 -999
2007-07-03 06:33:38 51°13.686 2°55.825 -999 -999 -999 -999
2007-07-03 06:34:36 51°13.687 2°55.768 -999 -999 -999 -999
2007-07-03 06:35:36 51°13.684 2°55.73 -999 -999 -999 -999
2007-07-03 06:36:36 51°13.722 2°55.722 -999 -999 -999 -999
2007-07-03 06:37:36 51°13.822 2°55.642 -999 -999 -999 -999
2007-07-03 06:38:36 51°13.944 2°55.555 -999 -999 -999 -999
2007-07-03 06:39:36 51°14.078 2°55.456 -999 -999 -999 -999
2007-07-03 06:40:36 51°14.223 2°55.32 -999 -999 -999 -999
2007-07-03 06:41:36 51°14.35 2°55.094 -999 -999 -999 -999
2007-07-03 06:42:36 51°14.421 2°54.781 -999 -999 -999 -999
2007-07-03 06:43:36 51°14.397 2°54.431 -999 -999 -999 -999
2007-07-03 06:44:36 51°14.29 2°54.121 -999 -999 -999 -999
2007-07-03 06:45:36 51°14.178 2°53.808 -999 -999 -999 -999
2007-07-03 06:46:36 51°14.065 2°53.493 -999 -999 -999 -999
2007-07-03 06:47:36 51°13.953 2°53.178 -999 -999 -999 -999
2007-07-03 06:48:36 51°13.843 2°52.861 -999 -999 -999 -999
2007-07-03 06:49:36 51°13.73 2°52.548 -999 -999 -999 -999
2007-07-03 06:50:36 51°13.617 2°52.236 -999 -999 -999 -999
2007-07-03 06:51:36 51°13.506 2°51.922 -999 -999 -999 -999
2007-07-03 06:52:36 51°13.394 2°51.607 -999 -999 -999 -999
2007-07-03 06:53:36 51°13.281 2°51.296 -999 -999 -999 -999
2007-07-03 06:54:36 51°13.161 2°50.993 -999 -999 -999 -999
2007-07-03 06:55:36 51°13.042 2°50.688 -999 -999 -999 -999
2007-07-03 06:56:36 51°12.922 2°50.384 -999 -999 -999 -999
2007-07-03 06:57:36 51°12.802 2°50.08 -999 -999 -999 -999
2007-07-03 06:58:36 51°12.682 2°49.776 -999 -999 -999 -999
2007-07-03 06:59:36 51°12.569 2°49.465 -999 -999 -999 -999
2007-07-03 07:00:36 51°12.456 2°49.155 -999 -999 -999 -999
2007-07-03 07:01:36 51°12.344 2°48.844 -999 -999 -999 -999
2007-07-03 07:02:36 51°12.236 2°48.53 -999 -999 -999 -999
2007-07-03 07:03:36 51°12.155 2°48.195 -999 -999 -999 -999
2007-07-03 07:04:36 51°12.072 2°47.859 -999 -999 -999 -999
2007-07-03 07:05:36 51°11.991 2°47.522 -999 -999 -999 -999
2007-07-03 07:06:36 51°11.909 2°47.184 -999 -999 -999 -999
2007-07-03 07:07:36 51°11.827 2°46.844 -999 -999 -999 -999
2007-07-03 07:08:36 51°11.748 2°46.501 -999 -999 -999 -999
2007-07-03 07:09:36 51°11.682 2°46.152 -999 -999 -999 -999
2007-07-03 07:10:36 51°11.618 2°45.802 -999 -999 -999 -999
2007-07-03 07:11:36 51°11.559 2°45.452 -999 -999 -999 -999
2007-07-03 07:12:36 51°11.499 2°45.102 -999 -999 -999 -999
2007-07-03 07:13:36 51°11.438 2°44.75 -999 -999 -999 -999
2007-07-03 07:14:36 51°11.38 2°44.398 -999 -999 -999 -999
2007-07-03 07:15:36 51°11.32 2°44.048 -999 -999 -999 -999
2007-07-03 07:16:36 51°11.26 2°43.696 -999 -999 -999 -999
2007-07-03 07:17:36 51°11.2 2°43.342 -999 -999 -999 -999
2007-07-03 07:18:36 51°11.139 2°42.988 -999 -999 -999 -999
2007-07-03 07:19:36 51°11.073 2°42.638 -999 -999 -999 -999
2007-07-03 07:20:36 51°11.082 2°42.357 -999 -999 -999 -999
2007-07-03 07:21:36 51°11.082 2°42.191 -999 -999 -999 -999
2007-07-03 07:22:36 51°11.089 2°42.089 -999 -999 -999 -999
2007-07-03 07:23:38 51°11.089 2°42.072 -999 -999 -999 -999
2007-07-03 07:24:39 51°11.089 2°42.057 -999 -999 -999 -999
2007-07-03 07:25:36 51°11.091 2°42.043 -999 -999 -999 -999
2007-07-03 07:26:36 51°11.094 2°42.026 -999 -999 -999 -999
2007-07-03 07:27:36 51°11.098 2°42.011 -999 -999 -999 -999
2007-07-03 07:28:36 51°11.103 2°41.994 -999 -999 -999 -999
2007-07-03 07:29:36 51°11.107 2°41.976 -999 -999 -999 -999
2007-07-03 07:30:36 51°11.113 2°41.955 -999 -999 -999 -999
2007-07-03 07:31:36 51°11.124 2°41.843 -999 -999 -999 -999
2007-07-03 07:32:36 51°11.075 2°41.595 -999 -999 -999 -999
2007-07-03 07:33:36 51°11.013 2°41.271 -999 -999 -999 -999
2007-07-03 07:34:36 51°10.946 2°40.923 -999 -999 -999 -999
2007-07-03 07:35:36 51°10.881 2°40.572 -999 -999 -999 -999
2007-07-03 07:36:36 51°10.814 2°40.22 -999 -999 -999 -999
2007-07-03 07:37:36 51°10.749 2°39.866 -999 -999 -999 -999
2007-07-03 07:38:36 51°10.684 2°39.514 -999 -999 -999 -999
2007-07-03 07:39:36 51°10.619 2°39.159 -999 -999 -999 -999
2007-07-03 07:40:36 51°10.553 2°38.804 -999 -999 -999 -999
2007-07-03 07:41:36 51°10.488 2°38.451 -999 -999 -999 -999
2007-07-03 07:42:36 51°10.422 2°38.096 -999 -999 -999 -999
2007-07-03 07:43:36 51°10.357 2°37.74 -999 -999 -999 -999
2007-07-03 07:44:36 51°10.291 2°37.382 -999 -999 -999 -999
2007-07-03 07:45:36 51°10.225 2°37.025 -999 -999 -999 -999
2007-07-03 07:46:36 51°10.16 2°36.668 -999 -999 -999 -999
2007-07-03 07:47:36 51°10.106 2°36.305 -999 -999 -999 -999
2007-07-03 07:48:36 51°10.142 2°35.949 -999 -999 -999 -999
2007-07-03 07:49:37 51°10.302 2°35.725 -999 -999 -999 -999
2007-07-03 07:50:36 51°10.498 2°35.742 -999 -999 -999 -999
2007-07-03 07:51:36 51°10.673 2°35.9 -999 -999 -999 -999
2007-07-03 07:52:36 51°10.847 2°36.063 -999 -999 -999 -999
2007-07-03 07:53:36 51°11.021 2°36.226 -999 -999 -999 -999
2007-07-03 07:54:36 51°11.194 2°36.393 -999 -999 -999 -999
2007-07-03 07:55:36 51°11.368 2°36.557 -999 -999 -999 -999
2007-07-03 07:56:36 51°11.54 2°36.722 -999 -999 -999 -999
2007-07-03 07:57:36 51°11.713 2°36.887 -999 -999 -999 -999
2007-07-03 07:58:36 51°11.886 2°37.05 -999 -999 -999 -999
2007-07-03 07:59:36 51°12.058 2°37.215 -999 -999 -999 -999
2007-07-03 08:00:37 51°12.233 2°37.381 -999 -999 -999 -999
2007-07-03 08:01:36 51°12.402 2°37.545 -999 -999 -999 -999
2007-07-03 08:02:36 51°12.575 2°37.707 -999 -999 -999 -999
2007-07-03 08:03:36 51°12.747 2°37.874 -999 -999 -999 -999
2007-07-03 08:04:36 51°12.92 2°38.041 -999 -999 -999 -999
2007-07-03 08:05:36 51°13.093 2°38.205 -999 -999 -999 -999
2007-07-03 08:06:36 51°13.266 2°38.371 -999 -999 -999 -999
2007-07-03 08:07:36 51°13.44 2°38.534 -999 -999 -999 -999
2007-07-03 08:08:36 51°13.614 2°38.698 -999 -999 -999 -999
2007-07-03 08:09:36 51°13.791 2°38.855 -999 -999 -999 -999
2007-07-03 08:10:36 51°13.985 2°38.934 -999 -999 -999 -999
2007-07-03 08:11:36 51°14.183 2°38.833 -999 -999 -999 -999
2007-07-03 08:12:36 51°14.377 2°38.676 -999 -999 -999 -999
2007-07-03 08:13:36 51°14.57 2°38.528 -999 -999 -999 -999
2007-07-03 08:14:36 51°14.762 2°38.384 -999 -999 -999 -999
2007-07-03 08:15:36 51°14.955 2°38.244 -999 -999 -999 -999
2007-07-03 08:16:36 51°15.146 2°38.101 -999 -999 -999 -999
2007-07-03 08:17:36 51°15.339 2°37.959 -999 -999 -999 -999
2007-07-03 08:18:37 51°15.537 2°37.813 -999 -999 -999 -999
2007-07-03 08:19:36 51°15.73 2°37.671 -999 -999 -999 -999
2007-07-03 08:20:36 51°15.923 2°37.522 -999 -999 -999 -999
2007-07-03 08:21:36 51°16.119 2°37.369 -999 -999 -999 -999
2007-07-03 08:22:36 51°16.311 2°37.197 -999 -999 -999 -999
2007-07-03 08:23:36 51°16.462 2°37.032 -999 -999 -999 -999
2007-07-03 08:24:36 51°16.539 2°36.889 -999 -999 -999 -999
2007-07-03 08:25:36 51°16.583 2°36.788 -999 -999 -999 -999
2007-07-03 08:26:37 51°16.581 2°36.762 -999 -999 -999 -999
2007-07-03 08:27:39 51°16.574 2°36.749 -999 -999 -999 -999
2007-07-03 08:28:37 51°16.567 2°36.735 -999 -999 -999 -999
2007-07-03 08:29:36 51°16.562 2°36.719 -999 -999 -999 -999
2007-07-03 08:30:36 51°16.558 2°36.701 -999 -999 -999 -999
2007-07-03 08:31:36 51°16.553 2°36.683 -999 -999 -999 -999
2007-07-03 08:32:36 51°16.549 2°36.666 -999 -999 -999 -999
2007-07-03 08:33:36 51°16.548 2°36.644 -999 -999 -999 -999
2007-07-03 08:34:36 51°16.627 2°36.519 -999 -999 -999 -999
2007-07-03 08:35:36 51°16.76 2°36.277 -999 -999 -999 -999
2007-07-03 08:36:37 51°16.917 2°36.027 -999 -999 -999 -999
2007-07-03 08:37:36 51°17.077 2°35.806 -999 -999 -999 -999
2007-07-03 08:38:36 51°17.238 2°35.577 -999 -999 -999 -999
2007-07-03 08:39:36 51°17.4 2°35.342 -999 -999 -999 -999
2007-07-03 08:40:36 51°17.556 2°35.086 -999 -999 -999 -999
2007-07-03 08:41:36 51°17.709 2°34.82 -999 -999 -999 -999
2007-07-03 08:42:36 51°17.852 2°34.536 -999 -999 -999 -999
2007-07-03 08:43:36 51°17.991 2°34.251 -999 -999 -999 -999
2007-07-03 08:44:36 51°18.129 2°33.967 -999 -999 -999 -999
2007-07-03 08:45:37 51°18.271 2°33.68 -999 -999 -999 -999
2007-07-03 08:46:37 51°18.411 2°33.402 -999 -999 -999 -999
2007-07-03 08:47:36 51°18.547 2°33.127 -999 -999 -999 -999
2007-07-03 08:48:37 51°18.683 2°32.842 -999 -999 -999 -999
2007-07-03 08:49:36 51°18.813 2°32.566 -999 -999 -999 -999
2007-07-03 08:50:36 51°18.943 2°32.284 -999 -999 -999 -999
2007-07-03 08:51:36 51°19.075 2°32.005 -999 -999 -999 -999
2007-07-03 08:52:36 51°19.205 2°31.725 -999 -999 -999 -999
2007-07-03 08:53:36 51°19.331 2°31.437 -999 -999 -999 -999
2007-07-03 08:54:36 51°19.46 2°31.15 -999 -999 -999 -999
2007-07-03 08:55:36 51°19.591 2°30.864 -999 -999 -999 -999
2007-07-03 08:56:36 51°19.723 2°30.576 -999 -999 -999 -999
2007-07-03 08:57:36 51°19.856 2°30.306 -999 -999 -999 -999
2007-07-03 08:58:36 51°19.934 2°30.137 -999 -999 -999 -999
2007-07-03 08:59:36 51°19.981 2°30.021 -999 -999 -999 -999
2007-07-03 09:00:36 51°20.006 2°29.956 -999 -999 -999 -999
2007-07-03 09:01:39 51°20.005 2°29.924 -999 -999 -999 -999
2007-07-03 09:02:37 51°20.007 2°29.896 -999 -999 -999 -999
2007-07-03 09:03:36 51°20.011 2°29.863 -999 -999 -999 -999
2007-07-03 09:04:37 51°20.014 2°29.833 -999 -999 -999 -999
2007-07-03 09:05:36 51°20.016 2°29.807 -999 -999 -999 -999
2007-07-03 09:06:36 51°20.024 2°29.779 -999 -999 -999 -999
2007-07-03 09:07:36 51°20.08 2°29.713 -999 -999 -999 -999
2007-07-03 09:08:36 51°20.179 2°29.802 -999 -999 -999 -999
2007-07-03 09:09:36 51°20.242 2°30.045 -999 -999 -999 -999
2007-07-03 09:10:36 51°20.322 2°30.321 -999 -999 -999 -999
2007-07-03 09:11:36 51°20.384 2°30.602 -999 -999 -999 -999
2007-07-03 09:12:36 51°20.443 2°30.891 -999 -999 -999 -999
2007-07-03 09:13:36 51°20.503 2°31.177 -999 -999 -999 -999
2007-07-03 09:14:36 51°20.587 2°31.444 -999 -999 -999 -999
2007-07-03 09:15:36 51°20.682 2°31.71 -999 -999 -999 -999
2007-07-03 09:16:36 51°20.769 2°31.976 -999 -999 -999 -999
2007-07-03 09:17:36 51°20.855 2°32.25 -999 -999 -999 -999
2007-07-03 09:18:36 51°20.943 2°32.524 -999 -999 -999 -999
2007-07-03 09:19:36 51°21.032 2°32.794 -999 -999 -999 -999
2007-07-03 09:20:36 51°21.122 2°33.064 -999 -999 -999 -999
2007-07-03 09:21:36 51°21.211 2°33.339 -999 -999 -999 -999
2007-07-03 09:22:36 51°21.299 2°33.617 -999 -999 -999 -999
2007-07-03 09:23:36 51°21.386 2°33.897 -999 -999 -999 -999
2007-07-03 09:24:36 51°21.471 2°34.168 -999 -999 -999 -999
2007-07-03 09:25:36 51°21.555 2°34.444 -999 -999 -999 -999
2007-07-03 09:26:36 51°21.647 2°34.719 -999 -999 -999 -999
2007-07-03 09:27:36 51°21.733 2°34.994 -999 -999 -999 -999
2007-07-03 09:28:36 51°21.821 2°35.267 -999 -999 -999 -999
2007-07-03 09:29:36 51°21.907 2°35.543 -999 -999 -999 -999
2007-07-03 09:30:36 51°22.011 2°35.808 -999 -999 -999 -999
2007-07-03 09:31:36 51°22.124 2°36.066 -999 -999 -999 -999
2007-07-03 09:32:36 51°22.234 2°36.322 -999 -999 -999 -999
2007-07-03 09:33:36 51°22.339 2°36.581 -999 -999 -999 -999
2007-07-03 09:34:36 51°22.449 2°36.839 -999 -999 -999 -999
2007-07-03 09:35:36 51°22.552 2°37.097 -999 -999 -999 -999
2007-07-03 09:36:36 51°22.657 2°37.357 -999 -999 -999 -999
2007-07-03 09:37:36 51°22.748 2°37.64 -999 -999 -999 -999
2007-07-03 09:38:36 51°22.839 2°37.92 -999 -999 -999 -999
2007-07-03 09:39:36 51°22.925 2°38.199 -999 -999 -999 -999
2007-07-03 09:40:36 51°23.013 2°38.48 -999 -999 -999 -999
2007-07-03 09:41:36 51°23.099 2°38.752 -999 -999 -999 -999
2007-07-03 09:42:36 51°23.183 2°39.029 -999 -999 -999 -999
2007-07-03 09:43:37 51°23.273 2°39.309 -999 -999 -999 -999
2007-07-03 09:44:36 51°23.358 2°39.582 -999 -999 -999 -999
2007-07-03 09:45:37 51°23.448 2°39.869 -999 -999 -999 -999
2007-07-03 09:46:36 51°23.535 2°40.147 -999 -999 -999 -999
2007-07-03 09:47:36 51°23.644 2°40.4 -999 -999 -999 -999
2007-07-03 09:48:36 51°23.829 2°40.369 -999 -999 -999 -999
2007-07-03 09:49:36 51°23.911 2°40.048 -999 -999 -999 -999
2007-07-03 09:50:37 51°23.975 2°39.691 -999 -999 -999 -999
2007-07-03 09:51:36 51°24.032 2°39.349 -999 -999 -999 -999
2007-07-03 09:52:37 51°24.075 2°38.991 -999 -999 -999 -999
2007-07-03 09:53:36 51°24.142 2°38.656 -999 -999 -999 -999
2007-07-03 09:54:36 51°24.222 2°38.388 -999 -999 -999 -999
2007-07-03 09:55:36 51°24.289 2°38.17 -999 -999 -999 -999
2007-07-03 09:56:37 51°24.397 2°38.04 -999 -999 -999 -999
2007-07-03 09:57:37 51°24.498 2°38.064 -999 -999 -999 -999
2007-07-03 09:58:36 51°24.507 2°37.862 -999 -999 -999 -999
2007-07-03 09:59:36 51°24.395 2°37.682 -999 -999 -999 -999
2007-07-03 10:00:36 51°24.246 2°37.582 -999 -999 -999 -999
2007-07-03 10:01:37 51°24.101 2°37.453 -999 -999 -999 -999
2007-07-03 10:02:36 51°24.001 2°37.245 -999 -999 -999 -999
2007-07-03 10:03:37 51°23.916 2°37.02 -999 -999 -999 -999
2007-07-03 10:04:36 51°23.88 2°36.792 -999 -999 -999 -999
2007-07-03 10:05:36 51°23.971 2°36.63 -999 -999 -999 -999
2007-07-03 10:06:36 51°24.15 2°36.612 -999 -999 -999 -999
2007-07-03 10:07:36 51°24.291 2°36.783 -999 -999 -999 -999
2007-07-03 10:08:36 51°24.383 2°37.043 -999 -999 -999 -999
2007-07-03 10:09:36 51°24.457 2°37.319 -999 -999 -999 -999
2007-07-03 10:10:37 51°24.509 2°37.616 -999 -999 -999 -999
2007-07-03 10:11:36 51°24.544 2°37.908 -999 -999 -999 -999
2007-07-03 10:12:37 51°24.505 2°38.204 -999 -999 -999 -999
2007-07-03 10:13:37 51°24.318 2°38.366 -999 -999 -999 -999
2007-07-03 10:14:37 51°24.099 2°38.274 -999 -999 -999 -999
2007-07-03 10:15:37 51°23.995 2°38.049 -999 -999 -999 -999
2007-07-03 10:16:36 51°23.953 2°37.873 -999 -999 -999 -999
2007-07-03 10:17:37 51°23.993 2°37.622 -999 -999 -999 -999
2007-07-03 10:18:36 51°24.151 2°37.589 -999 -999 -999 -999
2007-07-03 10:19:37 51°24.286 2°37.8 -999 -999 -999 -999
2007-07-03 10:20:36 51°24.404 2°38.031 -999 -999 -999 -999
2007-07-03 10:21:36 51°24.509 2°38.285 -999 -999 -999 -999
2007-07-03 10:22:36 51°24.576 2°38.564 -999 -999 -999 -999
2007-07-03 10:23:36 51°24.611 2°38.872 -999 -999 -999 -999
2007-07-03 10:24:37 51°24.644 2°39.19 -999 -999 -999 -999
2007-07-03 10:25:36 51°24.685 2°39.492 -999 -999 -999 -999
2007-07-03 10:26:37 51°24.726 2°39.801 -999 -999 -999 -999
2007-07-03 10:27:36 51°24.769 2°40.102 -999 -999 -999 -999
2007-07-03 10:28:37 51°24.814 2°40.417 -999 -999 -999 -999
2007-07-03 10:29:37 51°24.854 2°40.725 -999 -999 -999 -999
2007-07-03 10:30:37 51°24.897 2°41.034 -999 -999 -999 -999
2007-07-03 10:31:36 51°24.933 2°41.337 -999 -999 -999 -999
2007-07-03 10:32:36 51°24.973 2°41.645 -999 -999 -999 -999
2007-07-03 10:33:37 51°25.014 2°41.956 -999 -999 -999 -999
2007-07-03 10:34:36 51°25.055 2°42.256 -999 -999 -999 -999
2007-07-03 10:35:37 51°25.094 2°42.571 -999 -999 -999 -999
2007-07-03 10:36:36 51°25.136 2°42.874 -999 -999 -999 -999
2007-07-03 10:37:37 51°25.171 2°43.193 -999 -999 -999 -999
2007-07-03 10:38:36 51°25.206 2°43.493 -999 -999 -999 -999
2007-07-03 10:39:36 51°25.249 2°43.798 -999 -999 -999 -999
2007-07-03 10:40:37 51°25.286 2°44.106 -999 -999 -999 -999
2007-07-03 10:41:36 51°25.32 2°44.407 -999 -999 -999 -999
2007-07-03 10:42:37 51°25.357 2°44.72 -999 -999 -999 -999
2007-07-03 10:43:36 51°25.395 2°45.025 -999 -999 -999 -999
2007-07-03 10:44:37 51°25.427 2°45.34 -999 -999 -999 -999
2007-07-03 10:45:36 51°25.461 2°45.651 -999 -999 -999 -999
2007-07-03 10:46:36 51°25.496 2°45.964 -999 -999 -999 -999
2007-07-03 10:47:37 51°25.533 2°46.28 -999 -999 -999 -999
2007-07-03 10:48:36 51°25.567 2°46.588 -999 -999 -999 -999
2007-07-03 10:49:37 51°25.6 2°46.909 -999 -999 -999 -999
2007-07-03 10:50:36 51°25.636 2°47.217 -999 -999 -999 -999
2007-07-03 10:51:37 51°25.669 2°47.545 -999 -999 -999 -999
2007-07-03 10:52:36 51°25.707 2°47.854 -999 -999 -999 -999
2007-07-03 10:53:37 51°25.764 2°48.149 -999 -999 -999 -999
2007-07-03 10:54:37 51°25.824 2°48.338 -999 -999 -999 -999
2007-07-03 10:55:37 51°25.869 2°48.434 -999 -999 -999 -999
2007-07-03 10:56:37 51°25.924 2°48.463 -999 -999 -999 -999
2007-07-03 10:57:36 51°25.977 2°48.485 -999 -999 -999 -999
2007-07-03 10:58:37 51°26.007 2°48.49 -999 -999 -999 -999
2007-07-03 10:59:36 51°26.007 2°48.475 -999 -999 -999 -999
2007-07-03 11:00:36 51°26.008 2°48.453 -999 -999 -999 -999
2007-07-03 11:01:36 51°26.007 2°48.431 -999 -999 -999 -999
2007-07-03 11:02:37 51°26.004 2°48.41 -999 -999 -999 -999
2007-07-03 11:03:36 51°25.999 2°48.397 -999 -999 -999 -999
2007-07-03 11:04:36 51°25.997 2°48.379 -999 -999 -999 -999
2007-07-03 11:05:37 51°26.029 2°48.305 -999 -999 -999 -999
2007-07-03 11:06:37 51°26.109 2°48.368 -999 -999 -999 -999
2007-07-03 11:07:37 51°26.135 2°48.628 -999 -999 -999 -999
2007-07-03 11:08:36 51°26.18 2°48.93 -999 -999 -999 -999
2007-07-03 11:09:37 51°26.22 2°49.253 -999 -999 -999 -999
2007-07-03 11:10:37 51°26.254 2°49.569 -999 -999 -999 -999
2007-07-03 11:11:36 51°26.293 2°49.874 -999 -999 -999 -999
2007-07-03 11:12:37 51°26.337 2°50.187 -999 -999 -999 -999
2007-07-03 11:13:37 51°26.377 2°50.499 -999 -999 -999 -999
2007-07-03 11:14:37 51°26.417 2°50.815 -999 -999 -999 -999
2007-07-03 11:15:36 51°26.458 2°51.125 -999 -999 -999 -999
2007-07-03 11:16:37 51°26.503 2°51.44 -999 -999 -999 -999
2007-07-03 11:17:36 51°26.542 2°51.742 -999 -999 -999 -999
2007-07-03 11:18:36 51°26.589 2°52.051 -999 -999 -999 -999
2007-07-03 11:19:36 51°26.628 2°52.357 -999 -999 -999 -999
2007-07-03 11:20:36 51°26.679 2°52.659 -999 -999 -999 -999
2007-07-03 11:21:36 51°26.731 2°52.963 -999 -999 -999 -999
2007-07-03 11:22:36 51°26.778 2°53.268 -999 -999 -999 -999
2007-07-03 11:23:36 51°26.83 2°53.57 -999 -999 -999 -999
2007-07-03 11:24:36 51°26.879 2°53.868 -999 -999 -999 -999
2007-07-03 11:25:37 51°26.928 2°54.174 -999 -999 -999 -999
2007-07-03 11:26:36 51°26.978 2°54.47 -999 -999 -999 -999
2007-07-03 11:27:36 51°27.025 2°54.771 -999 -999 -999 -999
2007-07-03 11:28:37 51°27.075 2°55.081 -999 -999 -999 -999
2007-07-03 11:29:36 51°27.124 2°55.386 -999 -999 -999 -999
2007-07-03 11:30:36 51°27.176 2°55.701 -999 -999 -999 -999
2007-07-03 11:31:36 51°27.227 2°56.007 -999 -999 -999 -999
2007-07-03 11:32:37 51°27.276 2°56.321 -999 -999 -999 -999
2007-07-03 11:33:37 51°27.323 2°56.628 -999 -999 -999 -999
2007-07-03 11:34:36 51°27.369 2°56.93 -999 -999 -999 -999
2007-07-03 11:35:36 51°27.419 2°57.237 -999 -999 -999 -999
2007-07-03 11:36:36 51°27.471 2°57.543 -999 -999 -999 -999
2007-07-03 11:37:37 51°27.52 2°57.865 -999 -999 -999 -999
2007-07-03 11:38:36 51°27.567 2°58.171 -999 -999 -999 -999
2007-07-03 11:39:36 51°27.616 2°58.484 -999 -999 -999 -999
2007-07-03 11:40:36 51°27.663 2°58.799 -999 -999 -999 -999
2007-07-03 11:41:37 51°27.714 2°59.122 -999 -999 -999 -999
2007-07-03 11:42:36 51°27.762 2°59.438 -999 -999 -999 -999
2007-07-03 11:43:36 51°27.804 2°59.759 -999 -999 -999 -999
2007-07-03 11:44:37 51°27.856 3°0.079 -999 -999 -999 -999
2007-07-03 11:45:36 51°27.903 3°0.389 -999 -999 -999 -999
2007-07-03 11:46:36 51°27.954 3°0.702 -999 -999 -999 -999
2007-07-03 11:47:36 51°28.008 3°1.015 -999 -999 -999 -999
2007-07-03 11:48:36 51°28.056 3°1.326 -999 -999 -999 -999
2007-07-03 11:49:36 51°28.094 3°1.64 -999 -999 -999 -999
2007-07-03 11:50:36 51°28.134 3°1.958 -999 -999 -999 -999
2007-07-03 11:51:36 51°28.167 3°2.28 -999 -999 -999 -999
2007-07-03 11:52:36 51°28.192 3°2.604 -999 -999 -999 -999
2007-07-03 11:53:37 51°28.215 3°2.931 -999 -999 -999 -999
2007-07-03 11:54:36 51°28.216 3°3.188 -999 -999 -999 -999
2007-07-03 11:55:37 51°28.241 3°3.331 -999 -999 -999 -999
2007-07-03 11:56:36 51°28.263 3°3.421 -999 -999 -999 -999
2007-07-03 11:57:37 51°28.268 3°3.484 -999 -999 -999 -999
2007-07-03 11:58:36 51°28.264 3°3.488 -999 -999 -999 -999
2007-07-03 11:59:36 51°28.257 3°3.492 -999 -999 -999 -999
2007-07-03 12:00:36 51°28.249 3°3.497 -999 -999 -999 -999
2007-07-03 12:01:37 51°28.24 3°3.502 -999 -999 -999 -999
2007-07-03 12:02:37 51°28.233 3°3.505 -999 -999 -999 -999
2007-07-03 12:03:36 51°28.228 3°3.507 -999 -999 -999 -999
2007-07-03 12:04:36 51°28.224 3°3.51 -999 -999 -999 -999
2007-07-03 12:05:36 51°28.223 3°3.513 -999 -999 -999 -999
2007-07-03 12:06:36 51°28.221 3°3.517 -999 -999 -999 -999
2007-07-03 12:07:36 51°28.207 3°3.544 -999 -999 -999 -999
2007-07-03 12:08:37 51°28.15 3°3.666 -999 -999 -999 -999
2007-07-03 12:09:37 51°28.086 3°3.888 -999 -999 -999 -999
2007-07-03 12:10:36 51°28.005 3°4.126 -999 -999 -999 -999
2007-07-03 12:11:36 51°27.922 3°4.37 -999 -999 -999 -999
2007-07-03 12:12:36 51°27.837 3°4.617 -999 -999 -999 -999
2007-07-03 12:13:36 51°27.746 3°4.882 -999 -999 -999 -999
2007-07-03 12:14:36 51°27.656 3°5.151 -999 -999 -999 -999
2007-07-03 12:15:36 51°27.563 3°5.42 -999 -999 -999 -999
2007-07-03 12:16:37 51°27.465 3°5.688 -999 -999 -999 -999
2007-07-03 12:17:37 51°27.367 3°5.954 -999 -999 -999 -999
2007-07-03 12:18:37 51°27.267 3°6.219 -999 -999 -999 -999
2007-07-03 12:19:36 51°27.169 3°6.484 -999 -999 -999 -999
2007-07-03 12:20:36 51°27.068 3°6.753 -999 -999 -999 -999
2007-07-03 12:21:36 51°26.964 3°7.022 -999 -999 -999 -999
2007-07-03 12:22:37 51°26.862 3°7.3 -999 -999 -999 -999
2007-07-03 12:23:36 51°26.761 3°7.568 -999 -999 -999 -999
2007-07-03 12:24:37 51°26.658 3°7.847 -999 -999 -999 -999
2007-07-03 12:25:37 51°26.573 3°8.12 -999 -999 -999 -999
2007-07-03 12:26:37 51°26.492 3°8.276 -999 -999 -999 -999
2007-07-03 12:27:37 51°26.428 3°8.366 -999 -999 -999 -999
2007-07-03 12:28:36 51°26.401 3°8.409 -999 -999 -999 -999
2007-07-03 12:29:40 51°26.4 3°8.424 -999 -999 -999 -999
2007-07-03 12:30:37 51°26.393 3°8.444 -999 -999 -999 -999
2007-07-03 12:31:37 51°26.385 3°8.47 -999 -999 -999 -999
2007-07-03 12:32:36 51°26.377 3°8.497 -999 -999 -999 -999
2007-07-03 12:33:37 51°26.368 3°8.527 -999 -999 -999 -999
2007-07-03 12:34:37 51°26.359 3°8.556 -999 -999 -999 -999
2007-07-03 12:35:36 51°26.35 3°8.586 -999 -999 -999 -999
2007-07-03 12:36:36 51°26.341 3°8.618 -999 -999 -999 -999
2007-07-03 12:37:36 51°26.334 3°8.65 -999 -999 -999 -999
2007-07-03 12:38:36 51°26.326 3°8.682 -999 -999 -999 -999
2007-07-03 12:39:36 51°26.318 3°8.715 -999 -999 -999 -999
2007-07-03 12:40:36 51°26.31 3°8.75 -999 -999 -999 -999
2007-07-03 12:41:36 51°26.302 3°8.785 -999 -999 -999 -999
2007-07-03 12:42:36 51°26.295 3°8.822 -999 -999 -999 -999
2007-07-03 12:43:37 51°26.287 3°8.858 -999 -999 -999 -999
2007-07-03 12:44:37 51°26.274 3°8.903 -999 -999 -999 -999
2007-07-03 12:45:37 51°26.221 3°9.015 -999 -999 -999 -999
2007-07-03 12:46:36 51°26.157 3°9.259 -999 -999 -999 -999
2007-07-03 12:47:36 51°26.095 3°9.575 -999 -999 -999 -999
2007-07-03 12:48:36 51°26.034 3°9.932 -999 -999 -999 -999
2007-07-03 12:49:37 51°25.961 3°10.302 -999 -999 -999 -999
2007-07-03 12:50:37 51°25.863 3°10.653 -999 -999 -999 -999
2007-07-03 12:51:37 51°25.692 3°10.92 -999 -999 -999 -999
2007-07-03 12:52:37 51°25.504 3°11.16 -999 -999 -999 -999
2007-07-03 12:53:36 51°25.312 3°11.37 -999 -999 -999 -999
2007-07-03 12:54:36 51°25.109 3°11.555 -999 -999 -999 -999
2007-07-03 12:55:36 51°24.902 3°11.722 -999 -999 -999 -999
2007-07-03 12:56:37 51°24.693 3°11.888 -999 -999 -999 -999
2007-07-03 12:57:36 51°24.493 3°12.059 -999 -999 -999 -999
2007-07-03 12:58:37 51°24.294 3°12.24 -999 -999 -999 -999
2007-07-03 12:59:36 51°24.099 3°12.413 -999 -999 -999 -999
2007-07-03 13:00:36 51°23.901 3°12.591 -999 -999 -999 -999
2007-07-03 13:01:36 51°23.702 3°12.767 -999 -999 -999 -999
2007-07-03 13:02:36 51°23.504 3°12.944 -999 -999 -999 -999
2007-07-03 13:03:36 51°23.305 3°13.121 -999 -999 -999 -999
2007-07-03 13:04:36 51°23.106 3°13.301 -999 -999 -999 -999
2007-07-03 13:05:36 51°22.918 3°13.411 -999 -999 -999 -999
2007-07-03 13:06:37 51°22.806 3°13.389 -999 -999 -999 -999
2007-07-03 13:07:36 51°22.74 3°13.385 -999 -999 -999 -999
2007-07-03 13:08:36 51°22.703 3°13.379 -999 -999 -999 -999
2007-07-03 13:09:36 51°22.65 3°13.332 -999 -999 -999 -999
2007-07-03 13:10:37 51°22.615 3°13.269 -999 -999 -999 -999
2007-07-03 13:11:37 51°22.603 3°13.23 -999 -999 -999 -999
2007-07-03 13:12:36 51°22.597 3°13.228 -999 -999 -999 -999
2007-07-03 13:13:36 51°22.593 3°13.251 -999 -999 -999 -999
2007-07-03 13:14:36 51°22.595 3°13.29 -999 -999 -999 -999
2007-07-03 13:15:37 51°22.599 3°13.341 -999 -999 -999 -999
2007-07-03 13:16:36 51°22.605 3°13.398 -999 -999 -999 -999
2007-07-03 13:17:36 51°22.612 3°13.419 -999 -999 -999 -999
2007-07-03 13:18:36 51°22.608 3°13.221 -999 -999 -999 -999
2007-07-03 13:19:36 51°22.557 3°12.957 -999 -999 -999 -999
2007-07-03 13:20:37 51°22.522 3°12.679 -999 -999 -999 -999
2007-07-03 13:21:36 51°22.493 3°12.409 -999 -999 -999 -999
2007-07-03 13:22:36 51°22.463 3°12.135 -999 -999 -999 -999
2007-07-03 13:23:36 51°22.436 3°11.861 -999 -999 -999 -999
2007-07-03 13:24:36 51°22.411 3°11.584 -999 -999 -999 -999
2007-07-03 13:25:37 51°22.449 3°11.304 -999 -999 -999 -999
2007-07-03 13:26:36 51°22.505 3°11.031 -999 -999 -999 -999
2007-07-03 13:27:36 51°22.553 3°10.748 -999 -999 -999 -999
2007-07-03 13:28:37 51°22.552 3°10.458 -999 -999 -999 -999
2007-07-03 13:29:38 51°22.458 3°10.208 -999 -999 -999 -999
2007-07-03 13:30:37 51°22.375 3°9.96 -999 -999 -999 -999
2007-07-03 13:31:37 51°22.332 3°9.683 -999 -999 -999 -999
2007-07-03 13:32:37 51°22.293 3°9.402 -999 -999 -999 -999
2007-07-03 13:33:36 51°22.256 3°9.126 -999 -999 -999 -999
2007-07-03 13:34:36 51°22.219 3°8.85 -999 -999 -999 -999
2007-07-03 13:35:36 51°22.183 3°8.571 -999 -999 -999 -999
2007-07-03 13:36:36 51°22.146 3°8.291 -999 -999 -999 -999
2007-07-03 13:37:37 51°22.108 3°8.004 -999 -999 -999 -999
2007-07-03 13:38:37 51°22.067 3°7.722 -999 -999 -999 -999
2007-07-03 13:39:36 51°22.021 3°7.447 -999 -999 -999 -999
2007-07-03 13:40:37 51°21.967 3°7.165 -999 -999 -999 -999
2007-07-03 13:41:36 51°21.917 3°6.891 -999 -999 -999 -999
2007-07-03 13:42:36 51°21.867 3°6.612 -999 -999 -999 -999
2007-07-03 13:43:36 51°21.814 3°6.335 -999 -999 -999 -999
2007-07-03 13:44:36 51°21.753 3°6.065 -999 -999 -999 -999
2007-07-03 13:45:36 51°21.693 3°5.796 -999 -999 -999 -999
2007-07-03 13:46:36 51°21.632 3°5.527 -999 -999 -999 -999
2007-07-03 13:47:37 51°21.571 3°5.251 -999 -999 -999 -999
2007-07-03 13:48:36 51°21.513 3°4.986 -999 -999 -999 -999
2007-07-03 13:49:37 51°21.452 3°4.71 -999 -999 -999 -999
2007-07-03 13:50:37 51°21.393 3°4.437 -999 -999 -999 -999
2007-07-03 13:51:36 51°21.335 3°4.17 -999 -999 -999 -999
2007-07-03 13:52:37 51°21.277 3°3.894 -999 -999 -999 -999
2007-07-03 13:53:36 51°21.22 3°3.629 -999 -999 -999 -999
2007-07-03 13:54:36 51°21.162 3°3.357 -999 -999 -999 -999
2007-07-03 13:55:37 51°21.099 3°3.08 -999 -999 -999 -999
2007-07-03 13:56:36 51°21.038 3°2.814 -999 -999 -999 -999
2007-07-03 13:57:36 51°20.979 3°2.538 -999 -999 -999 -999
2007-07-03 13:58:36 51°20.919 3°2.268 -999 -999 -999 -999
2007-07-03 13:59:36 51°20.86 3°1.999 -999 -999 -999 -999
2007-07-03 14:00:36 51°20.8 3°1.728 -999 -999 -999 -999
2007-07-03 14:01:36 51°20.739 3°1.453 -999 -999 -999 -999
2007-07-03 14:02:36 51°20.677 3°1.176 -999 -999 -999 -999
2007-07-03 14:03:36 51°20.616 3°0.895 -999 -999 -999 -999
2007-07-03 14:04:36 51°20.554 3°0.614 -999 -999 -999 -999
2007-07-03 14:05:37 51°20.49 3°0.327 -999 -999 -999 -999
2007-07-03 14:06:36 51°20.429 3°0.047 -999 -999 -999 -999
2007-07-03 14:07:36 51°20.368 2°59.765 -999 -999 -999 -999
2007-07-03 14:08:37 51°20.305 2°59.477 -999 -999 -999 -999
2007-07-03 14:09:37 51°20.246 2°59.195 -999 -999 -999 -999
2007-07-03 14:10:36 51°20.187 2°58.915 -999 -999 -999 -999
2007-07-03 14:11:37 51°20.124 2°58.627 -999 -999 -999 -999
2007-07-03 14:12:36 51°20.066 2°58.346 -999 -999 -999 -999
2007-07-03 14:13:36 51°20.005 2°58.062 -999 -999 -999 -999
2007-07-03 14:14:37 51°19.944 2°57.77 -999 -999 -999 -999
2007-07-03 14:15:36 51°19.884 2°57.486 -999 -999 -999 -999
2007-07-03 14:16:36 51°19.824 2°57.198 -999 -999 -999 -999
2007-07-03 14:17:36 51°19.764 2°56.907 -999 -999 -999 -999
2007-07-03 14:18:37 51°19.703 2°56.611 -999 -999 -999 -999
2007-07-03 14:19:36 51°19.644 2°56.323 -999 -999 -999 -999
2007-07-03 14:20:36 51°19.583 2°56.031 -999 -999 -999 -999
2007-07-03 14:21:37 51°19.523 2°55.733 -999 -999 -999 -999
2007-07-03 14:22:36 51°19.463 2°55.444 -999 -999 -999 -999
2007-07-03 14:23:37 51°19.402 2°55.146 -999 -999 -999 -999
2007-07-03 14:24:36 51°19.343 2°54.857 -999 -999 -999 -999
2007-07-03 14:25:36 51°19.282 2°54.564 -999 -999 -999 -999
2007-07-03 14:26:37 51°19.221 2°54.263 -999 -999 -999 -999
2007-07-03 14:27:36 51°19.16 2°53.972 -999 -999 -999 -999
2007-07-03 14:28:36 51°19.099 2°53.676 -999 -999 -999 -999
2007-07-03 14:29:36 51°19.038 2°53.381 -999 -999 -999 -999
2007-07-03 14:30:37 51°18.976 2°53.082 -999 -999 -999 -999
2007-07-03 14:31:36 51°18.916 2°52.793 -999 -999 -999 -999
2007-07-03 14:32:36 51°18.858 2°52.497 -999 -999 -999 -999
2007-07-03 14:33:37 51°18.796 2°52.199 -999 -999 -999 -999
2007-07-03 14:34:36 51°18.729 2°51.917 -999 -999 -999 -999
2007-07-03 14:35:37 51°18.66 2°51.623 -999 -999 -999 -999
2007-07-03 14:36:36 51°18.595 2°51.339 -999 -999 -999 -999
2007-07-03 14:37:36 51°18.548 2°51.168 -999 -999 -999 -999
2007-07-03 14:38:36 51°18.527 2°51.077 -999 -999 -999 -999
2007-07-03 14:39:36 51°18.513 2°51.027 -999 -999 -999 -999
2007-07-03 14:40:36 51°18.503 2°51 -999 -999 -999 -999
2007-07-03 14:41:36 51°18.503 2°51.015 -999 -999 -999 -999
2007-07-03 14:42:37 51°18.507 2°51.044 -999 -999 -999 -999
2007-07-03 14:43:36 51°18.516 2°51.076 -999 -999 -999 -999
2007-07-03 14:44:37 51°18.527 2°51.111 -999 -999 -999 -999
2007-07-03 14:45:36 51°18.541 2°51.145 -999 -999 -999 -999
2007-07-03 14:46:37 51°18.54 2°51.183 -999 -999 -999 -999
2007-07-03 14:47:36 51°18.464 2°51.31 -999 -999 -999 -999
2007-07-03 14:48:36 51°18.345 2°51.552 -999 -999 -999 -999
2007-07-03 14:49:37 51°18.201 2°51.814 -999 -999 -999 -999
2007-07-03 14:50:36 51°18.05 2°52.06 -999 -999 -999 -999
2007-07-03 14:51:37 51°17.896 2°52.318 -999 -999 -999 -999
2007-07-03 14:52:36 51°17.742 2°52.555 -999 -999 -999 -999
2007-07-03 14:53:37 51°17.568 2°52.766 -999 -999 -999 -999
2007-07-03 14:54:37 51°17.393 2°52.964 -999 -999 -999 -999
2007-07-03 14:55:37 51°17.217 2°53.157 -999 -999 -999 -999
2007-07-03 14:56:36 51°17.041 2°53.339 -999 -999 -999 -999
2007-07-03 14:57:37 51°16.863 2°53.547 -999 -999 -999 -999
2007-07-03 14:58:37 51°16.704 2°53.795 -999 -999 -999 -999
2007-07-03 14:59:37 51°16.59 2°54.031 -999 -999 -999 -999
2007-07-03 15:00:37 51°16.537 2°54.253 -999 -999 -999 -999
2007-07-03 15:01:37 51°16.496 2°54.38 -999 -999 -999 -999
2007-07-03 15:02:37 51°16.457 2°54.432 -999 -999 -999 -999
2007-07-03 15:03:36 51°16.408 2°54.466 -999 -999 -999 -999
2007-07-03 15:04:37 51°16.365 2°54.485 -999 -999 -999 -999
2007-07-03 15:05:37 51°16.322 2°54.479 -999 -999 -999 -999
2007-07-03 15:06:37 51°16.291 2°54.468 -999 -999 -999 -999
2007-07-03 15:07:37 51°16.272 2°54.457 -999 -999 -999 -999
2007-07-03 15:08:37 51°16.265 2°54.456 -999 -999 -999 -999
2007-07-03 15:09:37 51°16.264 2°54.464 -999 -999 -999 -999
2007-07-03 15:10:37 51°16.268 2°54.479 -999 -999 -999 -999
2007-07-03 15:11:37 51°16.274 2°54.502 -999 -999 -999 -999
2007-07-03 15:12:36 51°16.278 2°54.522 -999 -999 -999 -999
2007-07-03 15:13:37 51°16.203 2°54.489 -999 -999 -999 -999
2007-07-03 15:14:37 51°16.026 2°54.457 -999 -999 -999 -999
2007-07-03 15:15:37 51°15.822 2°54.466 -999 -999 -999 -999
2007-07-03 15:16:37 51°15.618 2°54.458 -999 -999 -999 -999
2007-07-03 15:17:37 51°15.415 2°54.47 -999 -999 -999 -999
2007-07-03 15:18:37 51°15.211 2°54.482 -999 -999 -999 -999
2007-07-03 15:19:37 51°15.007 2°54.512 -999 -999 -999 -999
2007-07-03 15:20:37 51°14.814 2°54.635 -999 -999 -999 -999
2007-07-03 15:21:37 51°14.626 2°54.797 -999 -999 -999 -999
2007-07-03 15:22:37 51°14.443 2°54.983 -999 -999 -999 -999
2007-07-03 15:23:37 51°14.286 2°55.219 -999 -999 -999 -999
2007-07-03 15:24:40 51°14.128 2°55.414 -999 -999 -999 -999
2007-07-03 15:25:39 51°14.014 2°55.496 -999 -999 -999 -999
2007-07-03 15:26:38 51°13.912 2°55.57 -999 -999 -999 -999
2007-07-03 15:27:41 51°13.806 2°55.647 -999 -999 -999 -999
2007-07-03 15:28:41 51°13.717 2°55.783 -999 -999 -999 -999
2007-07-03 15:29:41 51°13.657 2°55.912 -999 -999 -999 -999
2007-07-03 15:30:41 51°13.62 2°56.004 -999 -999 -999 -999
2007-07-03 15:31:41 51°13.603 2°56.069 -999 -999 -999 -999
2007-07-03 15:32:41 51°13.598 2°56.09 -999 -999 -999 -999